createdAt,value
2017-08-05T00:01:01.716Z,0
2017-08-05T00:02:10.683Z,0
2017-08-05T00:03:19.641Z,0
2017-08-05T00:04:28.611Z,0
2017-08-05T00:05:37.563Z,0
2017-08-05T00:06:46.538Z,0
2017-08-05T00:07:55.494Z,0
2017-08-05T00:09:04.452Z,0
2017-08-05T00:10:13.413Z,0
2017-08-05T00:11:22.382Z,0
2017-08-05T00:12:31.661Z,0
2017-08-05T00:13:40.624Z,0
2017-08-05T00:14:49.904Z,0
2017-08-05T00:15:58.867Z,0
2017-08-05T00:17:07.821Z,0
2017-08-05T00:18:16.789Z,0
2017-08-05T00:19:25.742Z,0
2017-08-05T00:20:34.699Z,0
2017-08-05T00:21:43.666Z,0
2017-08-05T00:22:52.625Z,0
2017-08-05T00:24:01.595Z,0
2017-08-05T00:25:10.905Z,0
2017-08-05T00:26:19.864Z,0
2017-08-05T00:27:28.848Z,0
2017-08-05T00:28:37.809Z,0
2017-08-05T00:29:46.775Z,0
2017-08-05T00:30:55.737Z,0
2017-08-05T00:32:04.708Z,0
2017-08-05T00:33:13.666Z,0
2017-08-05T00:34:22.630Z,0
2017-08-05T00:35:31.581Z,0
2017-08-05T00:36:40.542Z,0
2017-08-05T00:37:49.510Z,0
2017-08-05T00:38:58.476Z,0
2017-08-05T00:40:07.433Z,0
2017-08-05T00:41:16.399Z,0
2017-08-05T00:42:25.357Z,0
2017-08-05T00:43:34.319Z,0
2017-08-05T00:44:43.281Z,0
2017-08-05T00:45:52.244Z,0
2017-08-05T00:47:01.204Z,0
2017-08-05T00:48:10.172Z,0
2017-08-05T00:49:19.137Z,0
2017-08-05T00:50:28.103Z,0
2017-08-05T00:51:37.067Z,0
2017-08-05T00:52:46.022Z,0
2017-08-05T00:53:54.983Z,0
2017-08-05T00:55:04.605Z,0
2017-08-05T00:56:13.567Z,0
2017-08-05T00:57:22.853Z,0
2017-08-05T00:58:31.832Z,0
2017-08-05T00:59:40.807Z,0
2017-08-05T01:00:49.769Z,0
2017-08-05T01:01:58.740Z,0
2017-08-05T01:03:07.698Z,0
2017-08-05T01:04:16.657Z,0
2017-08-05T01:05:25.618Z,0
2017-08-05T01:06:34.578Z,0
2017-08-05T01:07:43.530Z,0
2017-08-05T01:08:52.500Z,0
2017-08-05T01:10:01.459Z,0
2017-08-05T01:11:10.427Z,0
2017-08-05T01:12:19.382Z,0
2017-08-05T01:13:28.343Z,0
2017-08-05T01:14:37.311Z,0
2017-08-05T01:15:46.284Z,0
2017-08-05T01:16:55.243Z,0
2017-08-05T01:18:04.197Z,0
2017-08-05T01:19:13.153Z,0
2017-08-05T01:20:22.121Z,0
2017-08-05T01:21:31.073Z,0
2017-08-05T01:22:40.039Z,0
2017-08-05T01:23:49.008Z,0
2017-08-05T01:24:58.302Z,0
2017-08-05T01:26:07.253Z,0
2017-08-05T01:27:16.226Z,0
2017-08-05T01:28:25.191Z,0
2017-08-05T01:29:34.478Z,0
2017-08-05T01:30:43.446Z,0
2017-08-05T01:31:52.411Z,0
2017-08-05T01:33:01.385Z,0
2017-08-05T01:34:10.352Z,0
2017-08-05T01:35:19.320Z,0
2017-08-05T01:36:28.276Z,0
2017-08-05T01:37:37.247Z,0
2017-08-05T01:38:46.213Z,0
2017-08-05T01:39:55.506Z,0
2017-08-05T01:41:04.468Z,0
2017-08-05T01:42:13.429Z,0
2017-08-05T01:43:22.383Z,0
2017-08-05T01:44:31.352Z,0
2017-08-05T01:45:40.310Z,0
2017-08-05T01:46:49.605Z,0
2017-08-05T01:47:58.560Z,0
2017-08-05T01:49:07.520Z,0
2017-08-05T01:50:16.482Z,0
2017-08-05T01:51:25.445Z,0
2017-08-05T01:52:34.400Z,0
2017-08-05T01:53:43.367Z,0
2017-08-05T01:54:52.328Z,0
2017-08-05T01:56:01.295Z,0
2017-08-05T01:57:10.253Z,0
2017-08-05T01:58:19.217Z,0
2017-08-05T01:59:28.186Z,0
2017-08-05T02:00:37.145Z,0
2017-08-05T02:01:46.103Z,0
2017-08-05T02:02:55.068Z,0
2017-08-05T02:04:04.349Z,0
2017-08-05T02:05:13.314Z,0
2017-08-05T02:06:22.278Z,0
2017-08-05T02:07:31.239Z,0
2017-08-05T02:08:40.201Z,0
2017-08-05T02:09:49.160Z,0
2017-08-05T02:10:58.124Z,0
2017-08-05T02:12:07.088Z,0
2017-08-05T02:13:16.386Z,0
2017-08-05T02:14:25.349Z,0
2017-08-05T02:15:34.301Z,0
2017-08-05T02:16:43.263Z,0
2017-08-05T02:17:52.219Z,0
2017-08-05T02:19:01.182Z,0
2017-08-05T02:20:10.468Z,0
2017-08-05T02:21:19.746Z,0
2017-08-05T02:22:28.708Z,0
2017-08-05T02:23:37.672Z,0
2017-08-05T02:24:46.647Z,0
2017-08-05T02:25:55.605Z,0
2017-08-05T02:27:04.568Z,0
2017-08-05T02:28:13.528Z,0
2017-08-05T02:29:22.482Z,0
2017-08-05T02:30:31.436Z,0
2017-08-05T02:31:40.398Z,0
2017-08-05T02:32:49.370Z,0
2017-08-05T02:33:58.334Z,0
2017-08-05T02:35:07.302Z,0
2017-08-05T02:36:16.261Z,0
2017-08-05T02:37:25.216Z,0
2017-08-05T02:38:34.175Z,0
2017-08-05T02:39:43.144Z,0
2017-08-05T02:40:52.110Z,0
2017-08-05T02:42:01.080Z,0
2017-08-05T02:43:10.044Z,0
2017-08-05T02:44:19.008Z,0
2017-08-05T02:45:28.310Z,0
2017-08-05T02:46:37.615Z,0
2017-08-05T02:47:46.574Z,0
2017-08-05T02:48:55.540Z,0
2017-08-05T02:50:04.504Z,0
2017-08-05T02:51:13.460Z,0
2017-08-05T02:52:22.411Z,0
2017-08-05T02:53:31.376Z,0
2017-08-05T02:54:40.334Z,0
2017-08-05T02:55:49.293Z,0
2017-08-05T02:56:58.264Z,0
2017-08-05T02:58:07.221Z,0
2017-08-05T02:59:16.177Z,0
2017-08-05T03:00:25.141Z,0
2017-08-05T03:01:34.106Z,0
2017-08-05T03:02:43.068Z,0
2017-08-05T03:03:52.032Z,0
2017-08-05T03:05:00.986Z,0
2017-08-05T03:06:09.945Z,0
2017-08-05T03:07:18.901Z,0
2017-08-05T03:08:27.860Z,0
2017-08-05T03:09:36.827Z,0
2017-08-05T03:10:45.790Z,0
2017-08-05T03:11:54.765Z,0
2017-08-05T03:13:03.717Z,0
2017-08-05T03:14:12.683Z,0
2017-08-05T03:15:21.637Z,0
2017-08-05T03:16:30.597Z,0
2017-08-05T03:17:39.861Z,0
2017-08-05T03:18:48.825Z,0
2017-08-05T03:19:57.783Z,0
2017-08-05T03:21:06.737Z,0
2017-08-05T03:22:15.696Z,0
2017-08-05T03:23:24.657Z,0
2017-08-05T03:24:33.613Z,0
2017-08-05T03:25:42.567Z,0
2017-08-05T03:26:51.524Z,0
2017-08-05T03:28:00.481Z,0
2017-08-05T03:29:09.433Z,0
2017-08-05T03:30:18.397Z,0
2017-08-05T03:31:27.370Z,0
2017-08-05T03:32:36.335Z,0
2017-08-05T03:33:45.296Z,0
2017-08-05T03:34:54.260Z,0
2017-08-05T03:36:03.220Z,0
2017-08-05T03:37:12.177Z,0
2017-08-05T03:38:21.141Z,0
2017-08-05T03:39:30.096Z,0
2017-08-05T03:40:39.063Z,0
2017-08-05T03:41:48.030Z,0
2017-08-05T03:42:56.989Z,0
2017-08-05T03:44:06.279Z,0
2017-08-05T03:45:15.256Z,0
2017-08-05T03:46:24.208Z,0
2017-08-05T03:47:33.168Z,0
2017-08-05T03:48:42.139Z,0
2017-08-05T03:49:51.096Z,0
2017-08-05T03:51:00.053Z,0
2017-08-05T03:52:09.020Z,0
2017-08-05T03:53:17.986Z,0
2017-08-05T03:54:26.944Z,0
2017-08-05T03:55:35.903Z,0
2017-08-05T03:56:44.856Z,0
2017-08-05T03:57:54.143Z,0
2017-08-05T03:59:03.106Z,0
2017-08-05T04:00:12.381Z,0
2017-08-05T04:01:21.344Z,0
2017-08-05T04:02:30.298Z,0
2017-08-05T04:03:39.260Z,0
2017-08-05T04:04:48.221Z,0
2017-08-05T04:05:57.180Z,0
2017-08-05T04:07:06.464Z,5
2017-08-05T04:08:15.430Z,5
2017-08-05T04:09:24.467Z,5
2017-08-05T04:10:33.422Z,5
2017-08-05T04:11:42.393Z,5
2017-08-05T04:12:51.352Z,5
2017-08-05T04:14:00.311Z,5
2017-08-05T04:15:09.285Z,5
2017-08-05T04:16:18.246Z,5
2017-08-05T04:17:27.206Z,5
2017-08-05T04:18:36.161Z,5
2017-08-05T04:19:45.119Z,5
2017-08-05T04:20:54.089Z,5
2017-08-05T04:22:03.052Z,5
2017-08-05T04:23:12.014Z,5
2017-08-05T04:24:20.977Z,5
2017-08-05T04:25:29.929Z,5
2017-08-05T04:26:38.893Z,5
2017-08-05T04:27:48.178Z,5
2017-08-05T04:28:57.130Z,5
2017-08-05T04:30:06.087Z,5
2017-08-05T04:31:15.051Z,5
2017-08-05T04:32:24.015Z,5
2017-08-05T04:33:32.969Z,5
2017-08-05T04:34:41.925Z,5
2017-08-05T04:35:50.886Z,10
2017-08-05T04:36:59.857Z,10
2017-08-05T04:38:08.809Z,10
2017-08-05T04:39:17.767Z,10
2017-08-05T04:40:26.726Z,10
2017-08-05T04:41:35.672Z,10
2017-08-05T04:42:44.621Z,10
2017-08-05T04:43:53.597Z,10
2017-08-05T04:45:02.884Z,10
2017-08-05T04:46:11.838Z,10
2017-08-05T04:47:20.798Z,10
2017-08-05T04:48:29.781Z,10
2017-08-05T04:49:38.736Z,10
2017-08-05T04:50:47.701Z,10
2017-08-05T04:51:56.984Z,10
2017-08-05T04:53:05.950Z,10
2017-08-05T04:54:15.006Z,10
2017-08-05T04:55:23.968Z,10
2017-08-05T04:56:32.925Z,10
2017-08-05T04:57:41.877Z,10
2017-08-05T04:58:50.837Z,10
2017-08-05T04:59:59.791Z,10
2017-08-05T05:01:08.755Z,15
2017-08-05T05:02:17.726Z,15
2017-08-05T05:03:26.693Z,15
2017-08-05T05:04:35.657Z,15
2017-08-05T05:05:44.613Z,15
2017-08-05T05:06:53.893Z,15
2017-08-05T05:08:02.849Z,15
2017-08-05T05:09:11.810Z,15
2017-08-05T05:10:20.767Z,15
2017-08-05T05:11:29.713Z,15
2017-08-05T05:12:38.686Z,15
2017-08-05T05:13:47.969Z,15
2017-08-05T05:14:56.930Z,20
2017-08-05T05:16:05.884Z,25
2017-08-05T05:17:14.846Z,25
2017-08-05T05:18:23.819Z,25
2017-08-05T05:19:32.777Z,20
2017-08-05T05:20:41.738Z,20
2017-08-05T05:21:50.693Z,25
2017-08-05T05:22:59.654Z,25
2017-08-05T05:24:08.936Z,20
2017-08-05T05:25:17.893Z,25
2017-08-05T05:26:26.851Z,35
2017-08-05T05:27:35.811Z,35
2017-08-05T05:28:44.771Z,30
2017-08-05T05:29:53.735Z,30
2017-08-05T05:31:02.694Z,25
2017-08-05T05:32:11.979Z,30
2017-08-05T05:33:20.948Z,35
2017-08-05T05:34:29.904Z,35
2017-08-05T05:35:38.862Z,35
2017-08-05T05:36:47.825Z,35
2017-08-05T05:37:56.785Z,30
2017-08-05T05:39:05.738Z,25
2017-08-05T05:40:14.702Z,30
2017-08-05T05:41:23.670Z,40
2017-08-05T05:42:32.633Z,35
2017-08-05T05:43:41.592Z,35
2017-08-05T05:44:50.543Z,30
2017-08-05T05:45:59.509Z,25
2017-08-05T05:47:08.470Z,20
2017-08-05T05:48:17.431Z,20
2017-08-05T05:49:26.388Z,20
2017-08-05T05:50:35.346Z,20
2017-08-05T05:51:44.302Z,30
2017-08-05T05:52:53.254Z,35
2017-08-05T05:54:02.246Z,30
2017-08-05T05:55:11.215Z,30
2017-08-05T05:56:20.185Z,35
2017-08-05T05:57:29.151Z,30
2017-08-05T05:58:38.113Z,25
2017-08-05T05:59:47.068Z,25
2017-08-05T06:00:56.031Z,30
2017-08-05T06:02:04.990Z,30
2017-08-05T06:03:13.948Z,35
2017-08-05T06:04:22.905Z,40
2017-08-05T06:05:31.867Z,40
2017-08-05T06:06:40.829Z,40
2017-08-05T06:07:49.823Z,40
2017-08-05T06:08:58.771Z,45
2017-08-05T06:10:07.733Z,45
2017-08-05T06:11:16.687Z,40
2017-08-05T06:12:25.651Z,40
2017-08-05T06:13:34.614Z,50
2017-08-05T06:14:43.581Z,55
2017-08-05T06:15:52.543Z,55
2017-08-05T06:17:01.499Z,45
2017-08-05T06:18:10.458Z,50
2017-08-05T06:19:19.420Z,55
2017-08-05T06:20:28.380Z,55
2017-08-05T06:21:37.685Z,60
2017-08-05T06:22:46.641Z,55
2017-08-05T06:23:55.602Z,55
2017-08-05T06:25:04.572Z,55
2017-08-05T06:26:13.534Z,50
2017-08-05T06:27:22.491Z,50
2017-08-05T06:28:31.447Z,45
2017-08-05T06:29:40.411Z,45
2017-08-05T06:30:49.369Z,40
2017-08-05T06:31:58.321Z,45
2017-08-05T06:33:07.285Z,45
2017-08-05T06:34:16.249Z,45
2017-08-05T06:35:25.205Z,50
2017-08-05T06:36:34.170Z,65
2017-08-05T06:37:43.136Z,65
2017-08-05T06:38:52.092Z,65
2017-08-05T06:40:01.059Z,55
2017-08-05T06:41:10.342Z,55
2017-08-05T06:42:19.307Z,55
2017-08-05T06:43:28.267Z,55
2017-08-05T06:44:37.230Z,55
2017-08-05T06:45:46.193Z,55
2017-08-05T06:46:55.163Z,55
2017-08-05T06:48:04.128Z,55
2017-08-05T06:49:13.083Z,50
2017-08-05T06:50:22.047Z,50
2017-08-05T06:51:31.011Z,40
2017-08-05T06:52:39.984Z,40
2017-08-05T06:53:48.947Z,40
2017-08-05T06:54:57.913Z,40
2017-08-05T06:56:06.869Z,40
2017-08-05T06:57:15.839Z,40
2017-08-05T06:58:24.808Z,40
2017-08-05T06:59:33.768Z,40
2017-08-05T07:00:42.726Z,40
2017-08-05T07:01:52.017Z,40
2017-08-05T07:03:00.982Z,40
2017-08-05T07:04:10.267Z,40
2017-08-05T07:05:19.222Z,40
2017-08-05T07:06:28.180Z,40
2017-08-05T07:07:37.149Z,40
2017-08-05T07:08:46.114Z,40
2017-08-05T07:09:55.071Z,35
2017-08-05T07:11:04.031Z,35
2017-08-05T07:12:12.992Z,35
2017-08-05T07:13:22.277Z,35
2017-08-05T07:14:31.239Z,35
2017-08-05T07:15:40.202Z,40
2017-08-05T07:16:49.169Z,40
2017-08-05T07:17:58.134Z,40
2017-08-05T07:19:07.104Z,40
2017-08-05T07:20:16.059Z,40
2017-08-05T07:21:25.341Z,40
2017-08-05T07:22:34.305Z,40
2017-08-05T07:23:43.262Z,40
2017-08-05T07:24:52.230Z,45
2017-08-05T07:26:01.538Z,45
2017-08-05T07:27:10.500Z,45
2017-08-05T07:28:19.459Z,50
2017-08-05T07:29:28.424Z,55
2017-08-05T07:30:37.378Z,75
2017-08-05T07:31:46.344Z,80
2017-08-05T07:32:55.304Z,85
2017-08-05T07:34:04.263Z,80
2017-08-05T07:35:13.224Z,85
2017-08-05T07:36:22.181Z,95
2017-08-05T07:37:31.142Z,95
2017-08-05T07:38:40.112Z,100
2017-08-05T07:39:49.077Z,105
2017-08-05T07:40:58.041Z,100
2017-08-05T07:42:06.996Z,90
2017-08-05T07:43:15.966Z,85
2017-08-05T07:44:24.967Z,85
2017-08-05T07:45:33.922Z,90
2017-08-05T07:46:42.891Z,85
2017-08-05T07:47:51.862Z,75
2017-08-05T07:49:01.150Z,75
2017-08-05T07:50:10.444Z,45
2017-08-05T07:51:19.405Z,45
2017-08-05T07:52:28.370Z,60
2017-08-05T07:53:37.329Z,70
2017-08-05T07:54:46.294Z,50
2017-08-05T07:55:55.253Z,45
2017-08-05T07:57:04.535Z,45
2017-08-05T07:58:13.494Z,45
2017-08-05T07:59:22.456Z,45
2017-08-05T08:00:31.420Z,45
2017-08-05T08:01:40.704Z,45
2017-08-05T08:02:49.676Z,45
2017-08-05T08:03:58.652Z,45
2017-08-05T08:05:07.956Z,45
2017-08-05T08:06:16.912Z,45
2017-08-05T08:07:25.878Z,45
2017-08-05T08:08:34.850Z,50
2017-08-05T08:09:43.813Z,70
2017-08-05T08:10:52.777Z,75
2017-08-05T08:12:01.730Z,80
2017-08-05T08:13:10.697Z,85
2017-08-05T08:14:19.651Z,90
2017-08-05T08:15:28.622Z,95
2017-08-05T08:16:37.595Z,90
2017-08-05T08:17:46.548Z,80
2017-08-05T08:18:55.509Z,65
2017-08-05T08:20:04.476Z,70
2017-08-05T08:21:14.088Z,60
2017-08-05T08:22:23.058Z,75
2017-08-05T08:23:32.014Z,75
2017-08-05T08:24:40.978Z,50
2017-08-05T08:25:49.951Z,40
2017-08-05T08:26:58.915Z,55
2017-08-05T08:28:07.890Z,60
2017-08-05T08:29:16.850Z,55
2017-08-05T08:30:25.805Z,50
2017-08-05T08:31:34.774Z,45
2017-08-05T08:32:43.740Z,50
2017-08-05T08:33:52.700Z,50
2017-08-05T08:35:01.677Z,50
2017-08-05T08:36:10.648Z,55
2017-08-05T08:37:19.611Z,60
2017-08-05T08:38:28.573Z,65
2017-08-05T08:39:37.536Z,60
2017-08-05T08:40:46.496Z,55
2017-08-05T08:41:55.452Z,60
2017-08-05T08:43:04.409Z,85
2017-08-05T08:44:13.369Z,90
2017-08-05T08:45:22.338Z,65
2017-08-05T08:46:31.297Z,85
2017-08-05T08:47:40.272Z,80
2017-08-05T08:48:49.234Z,75
2017-08-05T08:49:58.188Z,105
2017-08-05T08:51:07.158Z,105
2017-08-05T08:52:16.452Z,95
2017-08-05T08:53:25.743Z,100
2017-08-05T08:54:35.037Z,100
2017-08-05T08:55:44.005Z,100
2017-08-05T08:56:53.019Z,75
2017-08-05T08:58:01.984Z,100
2017-08-05T08:59:10.966Z,120
2017-08-05T09:00:19.939Z,115
2017-08-05T09:01:28.923Z,105
2017-08-05T09:02:37.885Z,125
2017-08-05T09:03:46.849Z,110
2017-08-05T09:04:55.822Z,115
2017-08-05T09:06:04.792Z,130
2017-08-05T09:07:13.754Z,120
2017-08-05T09:08:22.717Z,100
2017-08-05T09:09:32.015Z,110
2017-08-05T09:10:40.979Z,105
2017-08-05T09:11:50.259Z,105
2017-08-05T09:12:59.233Z,105
2017-08-05T09:14:08.844Z,100
2017-08-05T09:15:17.805Z,95
2017-08-05T09:16:26.765Z,85
2017-08-05T09:17:35.724Z,100
2017-08-05T09:18:44.689Z,120
2017-08-05T09:19:53.653Z,115
2017-08-05T09:21:02.623Z,105
2017-08-05T09:22:11.914Z,125
2017-08-05T09:23:20.893Z,115
2017-08-05T09:24:29.859Z,100
2017-08-05T09:25:38.831Z,120
2017-08-05T09:26:47.794Z,125
2017-08-05T09:27:56.754Z,115
2017-08-05T09:29:05.766Z,110
2017-08-05T09:30:15.076Z,90
2017-08-05T09:31:24.039Z,75
2017-08-05T09:32:33.006Z,90
2017-08-05T09:33:41.980Z,105
2017-08-05T09:34:50.938Z,105
2017-08-05T09:35:59.907Z,105
2017-08-05T09:37:08.870Z,75
2017-08-05T09:38:17.837Z,95
2017-08-05T09:39:26.805Z,105
2017-08-05T09:40:35.763Z,100
2017-08-05T09:41:44.734Z,70
2017-08-05T09:42:53.693Z,70
2017-08-05T09:44:02.664Z,100
2017-08-05T09:45:11.631Z,140
2017-08-05T09:46:20.590Z,105
2017-08-05T09:47:29.553Z,110
2017-08-05T09:48:38.509Z,125
2017-08-05T09:49:47.479Z,135
2017-08-05T09:50:56.444Z,115
2017-08-05T09:52:05.406Z,80
2017-08-05T09:53:14.365Z,140
2017-08-05T09:54:23.332Z,150
2017-08-05T09:55:32.286Z,125
2017-08-05T09:56:41.243Z,125
2017-08-05T09:57:50.205Z,110
2017-08-05T09:58:59.161Z,105
2017-08-05T10:00:08.131Z,120
2017-08-05T10:01:17.104Z,125
2017-08-05T10:02:26.393Z,120
2017-08-05T10:03:35.367Z,120
2017-08-05T10:04:44.331Z,115
2017-08-05T10:05:53.289Z,105
2017-08-05T10:07:02.247Z,100
2017-08-05T10:08:11.534Z,100
2017-08-05T10:09:20.491Z,90
2017-08-05T10:10:29.451Z,60
2017-08-05T10:11:38.415Z,60
2017-08-05T10:12:47.378Z,50
2017-08-05T10:13:56.337Z,90
2017-08-05T10:15:05.304Z,55
2017-08-05T10:16:14.597Z,40
2017-08-05T10:17:23.568Z,40
2017-08-05T10:18:32.554Z,45
2017-08-05T10:19:41.513Z,70
2017-08-05T10:20:50.802Z,80
2017-08-05T10:21:59.767Z,75
2017-08-05T10:23:08.725Z,55
2017-08-05T10:24:17.689Z,55
2017-08-05T10:25:26.652Z,80
2017-08-05T10:26:35.609Z,75
2017-08-05T10:27:44.578Z,70
2017-08-05T10:28:53.542Z,55
2017-08-05T10:30:02.515Z,50
2017-08-05T10:31:11.477Z,55
2017-08-05T10:32:20.432Z,55
2017-08-05T10:33:29.397Z,60
2017-08-05T10:34:38.365Z,55
2017-08-05T10:35:47.324Z,45
2017-08-05T10:36:56.278Z,40
2017-08-05T10:38:05.238Z,35
2017-08-05T10:39:14.198Z,35
2017-08-05T10:40:23.164Z,30
2017-08-05T10:41:32.125Z,35
2017-08-05T10:42:41.091Z,40
2017-08-05T10:43:50.067Z,40
2017-08-05T10:44:59.021Z,40
2017-08-05T10:46:07.992Z,45
2017-08-05T10:47:16.964Z,40
2017-08-05T10:48:25.924Z,40
2017-08-05T10:49:34.884Z,45
2017-08-05T10:50:43.845Z,45
2017-08-05T10:51:52.813Z,55
2017-08-05T10:53:02.094Z,65
2017-08-05T10:54:11.390Z,60
2017-08-05T10:55:20.355Z,60
2017-08-05T10:56:29.310Z,50
2017-08-05T10:57:38.269Z,50
2017-08-05T10:58:47.233Z,55
2017-08-05T10:59:56.191Z,65
2017-08-05T11:01:05.154Z,70
2017-08-05T11:02:14.116Z,60
2017-08-05T11:03:23.407Z,55
2017-08-05T11:04:32.366Z,65
2017-08-05T11:05:41.328Z,55
2017-08-05T11:06:50.282Z,50
2017-08-05T11:07:59.238Z,55
2017-08-05T11:09:08.203Z,45
2017-08-05T11:10:17.157Z,40
2017-08-05T11:11:26.118Z,35
2017-08-05T11:12:35.084Z,45
2017-08-05T11:13:44.050Z,50
2017-08-05T11:14:53.012Z,45
2017-08-05T11:16:02.298Z,40
2017-08-05T11:17:11.261Z,35
2017-08-05T11:18:20.215Z,40
2017-08-05T11:19:29.171Z,40
2017-08-05T11:20:38.131Z,50
2017-08-05T11:21:47.085Z,55
2017-08-05T11:22:56.053Z,60
2017-08-05T11:24:05.009Z,55
2017-08-05T11:25:13.962Z,50
2017-08-05T11:26:22.927Z,45
2017-08-05T11:27:32.217Z,40
2017-08-05T11:28:41.180Z,40
2017-08-05T11:29:50.140Z,35
2017-08-05T11:30:59.110Z,35
2017-08-05T11:32:08.075Z,35
2017-08-05T11:33:17.036Z,35
2017-08-05T11:34:25.993Z,30
2017-08-05T11:35:34.961Z,30
2017-08-05T11:36:43.920Z,30
2017-08-05T11:37:52.876Z,30
2017-08-05T11:39:01.843Z,30
2017-08-05T11:40:10.806Z,30
2017-08-05T11:41:19.780Z,30
2017-08-05T11:42:28.757Z,30
2017-08-05T11:43:37.719Z,25
2017-08-05T11:44:46.682Z,25
2017-08-05T11:45:55.652Z,30
2017-08-05T11:47:04.934Z,30
2017-08-05T11:48:13.896Z,30
2017-08-05T11:49:22.857Z,30
2017-08-05T11:50:31.819Z,25
2017-08-05T11:51:40.803Z,25
2017-08-05T11:52:50.096Z,20
2017-08-05T11:53:59.053Z,20
2017-08-05T11:55:08.013Z,20
2017-08-05T11:56:16.977Z,20
2017-08-05T11:57:25.943Z,20
2017-08-05T11:58:34.909Z,25
2017-08-05T11:59:43.874Z,25
2017-08-05T12:00:52.841Z,25
2017-08-05T12:02:01.801Z,25
2017-08-05T12:03:10.768Z,25
2017-08-05T12:04:19.728Z,30
2017-08-05T12:05:28.685Z,30
2017-08-05T12:06:37.648Z,30
2017-08-05T12:07:46.605Z,30
2017-08-05T12:08:55.566Z,35
2017-08-05T12:10:04.524Z,30
2017-08-05T12:11:13.489Z,30
2017-08-05T12:12:22.441Z,30
2017-08-05T12:13:31.406Z,30
2017-08-05T12:14:40.367Z,30
2017-08-05T12:15:49.324Z,30
2017-08-05T12:16:58.284Z,35
2017-08-05T12:18:07.230Z,40
2017-08-05T12:19:16.203Z,40
2017-08-05T12:20:25.166Z,35
2017-08-05T12:21:34.455Z,35
2017-08-05T12:22:43.412Z,35
2017-08-05T12:23:52.377Z,35
2017-08-05T12:25:01.346Z,35
2017-08-05T12:26:10.302Z,35
2017-08-05T12:27:19.274Z,35
2017-08-05T12:28:28.229Z,45
2017-08-05T12:29:37.191Z,45
2017-08-05T12:30:46.151Z,50
2017-08-05T12:31:55.107Z,55
2017-08-05T12:33:04.067Z,55
2017-08-05T12:34:13.025Z,60
2017-08-05T12:35:21.982Z,65
2017-08-05T12:36:30.937Z,65
2017-08-05T12:37:40.235Z,65
2017-08-05T12:38:49.191Z,65
2017-08-05T12:39:58.165Z,75
2017-08-05T12:41:07.450Z,80
2017-08-05T12:42:16.437Z,75
2017-08-05T12:43:25.395Z,70
2017-08-05T12:44:34.356Z,60
2017-08-05T12:45:43.318Z,50
2017-08-05T12:46:52.299Z,40
2017-08-05T12:48:01.255Z,30
2017-08-05T12:49:10.215Z,25
2017-08-05T12:50:19.181Z,25
2017-08-05T12:51:28.142Z,25
2017-08-05T12:52:37.098Z,25
2017-08-05T12:53:46.058Z,20
2017-08-05T12:54:55.017Z,20
2017-08-05T12:56:03.975Z,20
2017-08-05T12:57:12.938Z,15
2017-08-05T12:58:21.910Z,20
2017-08-05T12:59:30.873Z,20
2017-08-05T13:00:39.834Z,20
2017-08-05T13:01:48.802Z,25
2017-08-05T13:02:57.769Z,35
2017-08-05T13:04:06.728Z,45
2017-08-05T13:05:15.687Z,60
2017-08-05T13:06:24.659Z,70
2017-08-05T13:07:33.633Z,65
2017-08-05T13:08:42.599Z,55
2017-08-05T13:09:51.886Z,55
2017-08-05T13:11:00.847Z,55
2017-08-05T13:12:09.807Z,55
2017-08-05T13:13:18.765Z,65
2017-08-05T13:14:27.728Z,70
2017-08-05T13:15:36.691Z,65
2017-08-05T13:16:45.655Z,70
2017-08-05T13:17:54.611Z,65
2017-08-05T13:19:03.583Z,60
2017-08-05T13:20:12.546Z,55
2017-08-05T13:21:21.510Z,50
2017-08-05T13:22:30.477Z,60
2017-08-05T13:23:39.426Z,50
2017-08-05T13:24:48.387Z,50
2017-08-05T13:25:57.354Z,45
2017-08-05T13:27:06.332Z,40
2017-08-05T13:28:15.295Z,35
2017-08-05T13:29:24.267Z,40
2017-08-05T13:30:33.575Z,45
2017-08-05T13:31:42.528Z,40
2017-08-05T13:32:51.504Z,35
2017-08-05T13:34:00.551Z,35
2017-08-05T13:35:09.510Z,25
2017-08-05T13:36:18.466Z,30
2017-08-05T13:37:27.425Z,35
2017-08-05T13:38:36.381Z,25
2017-08-05T13:39:45.344Z,20
2017-08-05T13:40:54.299Z,20
2017-08-05T13:42:03.261Z,20
2017-08-05T13:43:12.215Z,15
2017-08-05T13:44:21.177Z,15
2017-08-05T13:45:30.141Z,15
2017-08-05T13:46:39.103Z,20
2017-08-05T13:47:48.070Z,25
2017-08-05T13:48:57.032Z,20
2017-08-05T13:50:05.995Z,25
2017-08-05T13:51:14.957Z,15
2017-08-05T13:52:23.912Z,10
2017-08-05T13:53:32.873Z,15
2017-08-05T13:54:41.852Z,15
2017-08-05T13:55:50.811Z,15
2017-08-05T13:56:59.781Z,15
2017-08-05T13:58:08.741Z,15
2017-08-05T13:59:17.702Z,10
2017-08-05T14:00:26.657Z,10
2017-08-05T14:01:35.946Z,15
2017-08-05T14:02:44.905Z,20
2017-08-05T14:03:53.869Z,20
2017-08-05T14:05:02.825Z,20
2017-08-05T14:06:11.792Z,20
2017-08-05T14:07:20.748Z,20
2017-08-05T14:08:29.706Z,20
2017-08-05T14:09:38.994Z,15
2017-08-05T14:10:47.952Z,15
2017-08-05T14:11:56.908Z,15
2017-08-05T14:13:05.872Z,15
2017-08-05T14:14:14.834Z,10
2017-08-05T14:15:23.809Z,10
2017-08-05T14:16:32.770Z,10
2017-08-05T14:17:41.731Z,10
2017-08-05T14:18:50.694Z,15
2017-08-05T14:19:59.652Z,20
2017-08-05T14:21:08.619Z,15
2017-08-05T14:22:17.599Z,15
2017-08-05T14:23:26.557Z,15
2017-08-05T14:24:35.518Z,10
2017-08-05T14:25:44.486Z,10
2017-08-05T14:26:53.446Z,10
2017-08-05T14:28:02.405Z,10
2017-08-05T14:29:11.364Z,10
2017-08-05T14:30:20.319Z,5
2017-08-05T14:31:29.600Z,10
2017-08-05T14:32:38.551Z,5
2017-08-05T14:33:47.511Z,10
2017-08-05T14:34:56.492Z,10
2017-08-05T14:36:05.451Z,10
2017-08-05T14:37:14.738Z,5
2017-08-05T14:38:23.702Z,5
2017-08-05T14:39:32.663Z,5
2017-08-05T14:40:41.639Z,5
2017-08-05T14:41:50.597Z,5
2017-08-05T14:42:59.885Z,10
2017-08-05T14:44:08.855Z,10
2017-08-05T14:45:18.138Z,10
2017-08-05T14:46:27.099Z,10
2017-08-05T14:47:36.057Z,15
2017-08-05T14:48:45.016Z,10
2017-08-05T14:49:53.983Z,15
2017-08-05T14:51:02.942Z,20
2017-08-05T14:52:11.896Z,25
2017-08-05T14:53:20.851Z,30
2017-08-05T14:54:29.812Z,30
2017-08-05T14:55:38.780Z,35
2017-08-05T14:56:47.747Z,35
2017-08-05T14:57:56.704Z,30
2017-08-05T14:59:05.664Z,25
2017-08-05T15:00:14.631Z,30
2017-08-05T15:01:23.588Z,40
2017-08-05T15:02:32.543Z,40
2017-08-05T15:03:41.504Z,45
2017-08-05T15:04:50.784Z,45
2017-08-05T15:05:59.743Z,40
2017-08-05T15:07:08.706Z,40
2017-08-05T15:08:17.662Z,45
2017-08-05T15:09:26.634Z,45
2017-08-05T15:10:35.591Z,45
2017-08-05T15:11:44.552Z,40
2017-08-05T15:12:53.514Z,40
2017-08-05T15:14:02.476Z,35
2017-08-05T15:15:11.431Z,30
2017-08-05T15:16:20.396Z,25
2017-08-05T15:17:29.674Z,30
2017-08-05T15:18:38.632Z,30
2017-08-05T15:19:47.590Z,35
2017-08-05T15:20:56.543Z,35
2017-08-05T15:22:05.495Z,35
2017-08-05T15:23:14.463Z,30
2017-08-05T15:24:23.416Z,35
2017-08-05T15:25:32.376Z,30
2017-08-05T15:26:41.358Z,25
2017-08-05T15:27:50.320Z,30
2017-08-05T15:28:59.274Z,30
2017-08-05T15:30:08.558Z,30
2017-08-05T15:31:17.517Z,30
2017-08-05T15:32:26.472Z,25
2017-08-05T15:33:35.440Z,30
2017-08-05T15:34:44.399Z,30
2017-08-05T15:35:53.348Z,25
2017-08-05T15:37:02.310Z,25
2017-08-05T15:38:11.269Z,25
2017-08-05T15:39:20.248Z,25
2017-08-05T15:40:29.211Z,25
2017-08-05T15:41:38.167Z,25
2017-08-05T15:42:47.126Z,25
2017-08-05T15:43:56.083Z,30
2017-08-05T15:45:05.041Z,30
2017-08-05T15:46:14.003Z,25
2017-08-05T15:47:22.966Z,25
2017-08-05T15:48:31.921Z,30
2017-08-05T15:49:40.875Z,30
2017-08-05T15:50:49.836Z,35
2017-08-05T15:51:58.813Z,35
2017-08-05T15:53:07.773Z,35
2017-08-05T15:54:16.732Z,35
2017-08-05T15:55:25.694Z,40
2017-08-05T15:56:34.654Z,40
2017-08-05T15:57:43.614Z,35
2017-08-05T15:58:52.575Z,40
2017-08-05T16:00:01.542Z,45
2017-08-05T16:01:10.502Z,45
2017-08-05T16:02:19.464Z,40
2017-08-05T16:03:28.428Z,35
2017-08-05T16:04:37.391Z,30
2017-08-05T16:05:46.351Z,30
2017-08-05T16:06:55.316Z,40
2017-08-05T16:08:04.274Z,40
2017-08-05T16:09:13.244Z,40
2017-08-05T16:10:22.207Z,40
2017-08-05T16:11:31.171Z,45
2017-08-05T16:12:40.125Z,40
2017-08-05T16:13:49.087Z,50
2017-08-05T16:14:58.047Z,45
2017-08-05T16:16:07.010Z,35
2017-08-05T16:17:15.962Z,35
2017-08-05T16:18:24.918Z,35
2017-08-05T16:19:33.881Z,30
2017-08-05T16:20:42.842Z,30
2017-08-05T16:21:51.801Z,30
2017-08-05T16:23:00.759Z,25
2017-08-05T16:24:09.725Z,25
2017-08-05T16:25:18.676Z,25
2017-08-05T16:26:27.651Z,25
2017-08-05T16:27:36.616Z,25
2017-08-05T16:28:45.567Z,20
2017-08-05T16:29:54.529Z,20
2017-08-05T16:31:03.810Z,20
2017-08-05T16:32:13.088Z,15